Havana, Cuba
Current Conditions -  °F | °C
As of 2:55 PM on Wednesday 26 Nov 2014 (Local Time) from MUHA Reporting Station
Broken Clouds Broken Clouds  
Wind Chill: 75°   Ceiling: 2000
Heat Index: 75°   Visibility: 6mi
Dew Point: 66°   Wind: 16mph
Humidity: 73%   Direction: 360°N
Pressure: 30.09"   Gusts: NA
Location:  23.12°N, 82.39°W
Report Text: MUHA 261855Z 36014KT 9000 SCT015 BKN020 24/19 Q1019
Loading
Personal Weather Stations






























Interactive Weather Map New forecast layout! Learn more

10-Day Weather Forecast

Advertisements
Track Severe Weather on mobile